sensor_id;sensor_type;location;lat;lon;timestamp;P1;durP1;ratioP1;P2;durP2;ratioP2
50733;SDS011;36701;51.798;19.474;2022-10-22T00:01:52;18.73;;;10.48;;
50733;SDS011;36701;51.798;19.474;2022-10-22T00:04:19;16.77;;;10.15;;
50733;SDS011;36701;51.798;19.474;2022-10-22T00:06:45;16.73;;;10.38;;
50733;SDS011;36701;51.798;19.474;2022-10-22T00:09:18;17.08;;;9.13;;
50733;SDS011;36701;51.798;19.474;2022-10-22T00:11:45;16.65;;;9.38;;
50733;SDS011;36701;51.798;19.474;2022-10-22T00:14:11;15.23;;;9.15;;
50733;SDS011;36701;51.798;19.474;2022-10-22T00:16:37;15.18;;;10.48;;
50733;SDS011;36701;51.798;19.474;2022-10-22T00:19:04;15.57;;;9.48;;
50733;SDS011;36701;51.798;19.474;2022-10-22T00:21:30;17.60;;;9.93;;
50733;SDS011;36701;51.798;19.474;2022-10-22T00:23:56;18.42;;;11.25;;
50733;SDS011;36701;51.798;19.474;2022-10-22T00:26:23;19.25;;;10.65;;
50733;SDS011;36701;51.798;19.474;2022-10-22T00:28:49;19.58;;;10.75;;
50733;SDS011;36701;51.798;19.474;2022-10-22T00:31:16;16.80;;;10.65;;
50733;SDS011;36701;51.798;19.474;2022-10-22T00:33:47;20.95;;;9.38;;
50733;SDS011;36701;51.798;19.474;2022-10-22T00:36:14;17.85;;;10.57;;
50733;SDS011;36701;51.798;19.474;2022-10-22T00:38:41;16.55;;;9.15;;
50733;SDS011;36701;51.798;19.474;2022-10-22T00:41:08;14.60;;;9.80;;
50733;SDS011;36701;51.798;19.474;2022-10-22T00:43:51;16.62;;;9.35;;
50733;SDS011;36701;51.798;19.474;2022-10-22T00:46:20;12.98;;;8.63;;
50733;SDS011;36701;51.798;19.474;2022-10-22T00:48:46;13.98;;;8.98;;
50733;SDS011;36701;51.798;19.474;2022-10-22T00:51:12;14.30;;;9.82;;
50733;SDS011;36701;51.798;19.474;2022-10-22T00:53:49;18.55;;;10.27;;
50733;SDS011;36701;51.798;19.474;2022-10-22T00:56:21;14.45;;;8.93;;
50733;SDS011;36701;51.798;19.474;2022-10-22T00:58:51;14.70;;;9.30;;
50733;SDS011;36701;51.798;19.474;2022-10-22T01:01:23;16.58;;;9.50;;
50733;SDS011;36701;51.798;19.474;2022-10-22T01:03:52;15.80;;;9.43;;
50733;SDS011;36701;51.798;19.474;2022-10-22T01:06:26;17.00;;;9.63;;
50733;SDS011;36701;51.798;19.474;2022-10-22T01:30:23;20.70;;;9.63;;
50733;SDS011;36701;51.798;19.474;2022-10-22T01:32:51;19.83;;;10.05;;
50733;SDS011;36701;51.798;19.474;2022-10-22T01:35:22;14.73;;;9.18;;
50733;SDS011;36701;51.798;19.474;2022-10-22T01:37:53;13.65;;;8.68;;
50733;SDS011;36701;51.798;19.474;2022-10-22T01:40:23;16.42;;;9.60;;
50733;SDS011;36701;51.798;19.474;2022-10-22T01:43:00;17.77;;;9.63;;
50733;SDS011;36701;51.798;19.474;2022-10-22T01:45:29;17.87;;;10.10;;
50733;SDS011;36701;51.798;19.474;2022-10-22T01:48:14;26.30;;;10.10;;
50733;SDS011;36701;51.798;19.474;2022-10-22T01:53:24;19.20;;;9.95;;
50733;SDS011;36701;51.798;19.474;2022-10-22T01:58:51;16.85;;;10.70;;
50733;SDS011;36701;51.798;19.474;2022-10-22T02:01:29;21.92;;;10.38;;
50733;SDS011;36701;51.798;19.474;2022-10-22T02:04:19;16.10;;;10.43;;
50733;SDS011;36701;51.798;19.474;2022-10-22T02:06:51;21.35;;;11.63;;
50733;SDS011;36701;51.798;19.474;2022-10-22T02:11:50;14.68;;;8.95;;
50733;SDS011;36701;51.798;19.474;2022-10-22T02:14:18;18.30;;;11.93;;
50733;SDS011;36701;51.798;19.474;2022-10-22T02:16:46;17.45;;;10.45;;
50733;SDS011;36701;51.798;19.474;2022-10-22T02:19:27;15.45;;;9.60;;
50733;SDS011;36701;51.798;19.474;2022-10-22T02:22:02;17.40;;;8.85;;
50733;SDS011;36701;51.798;19.474;2022-10-22T02:24:29;15.55;;;8.90;;
50733;SDS011;36701;51.798;19.474;2022-10-22T02:32:20;17.60;;;10.40;;
50733;SDS011;36701;51.798;19.474;2022-10-22T02:34:52;18.48;;;9.63;;
50733;SDS011;36701;51.798;19.474;2022-10-22T02:37:20;25.00;;;9.73;;
50733;SDS011;36701;51.798;19.474;2022-10-22T02:39:49;17.02;;;9.07;;
50733;SDS011;36701;51.798;19.474;2022-10-22T02:42:17;19.05;;;9.82;;
50733;SDS011;36701;51.798;19.474;2022-10-22T02:44:43;15.35;;;8.88;;
50733;SDS011;36701;51.798;19.474;2022-10-22T02:47:10;16.60;;;9.15;;
50733;SDS011;36701;51.798;19.474;2022-10-22T02:49:36;18.37;;;10.20;;
50733;SDS011;36701;51.798;19.474;2022-10-22T02:52:02;21.42;;;10.20;;
50733;SDS011;36701;51.798;19.474;2022-10-22T02:54:29;19.65;;;9.40;;
50733;SDS011;36701;51.798;19.474;2022-10-22T02:56:55;15.65;;;7.60;;
50733;SDS011;36701;51.798;19.474;2022-10-22T02:59:22;13.82;;;9.32;;
50733;SDS011;36701;51.798;19.474;2022-10-22T03:01:48;13.38;;;9.25;;
50733;SDS011;36701;51.798;19.474;2022-10-22T03:04:14;14.10;;;8.73;;
50733;SDS011;36701;51.798;19.474;2022-10-22T03:06:41;20.00;;;9.63;;
50733;SDS011;36701;51.798;19.474;2022-10-22T03:09:13;17.40;;;9.10;;
50733;SDS011;36701;51.798;19.474;2022-10-22T03:11:41;21.02;;;9.95;;
50733;SDS011;36701;51.798;19.474;2022-10-22T03:14:07;17.85;;;10.02;;
50733;SDS011;36701;51.798;19.474;2022-10-22T03:16:34;18.65;;;9.73;;
50733;SDS011;36701;51.798;19.474;2022-10-22T03:19:00;19.48;;;9.18;;
50733;SDS011;36701;51.798;19.474;2022-10-22T03:23:56;17.40;;;9.75;;
50733;SDS011;36701;51.798;19.474;2022-10-22T03:26:24;22.35;;;8.95;;
50733;SDS011;36701;51.798;19.474;2022-10-22T03:28:51;16.23;;;9.38;;
50733;SDS011;36701;51.798;19.474;2022-10-22T03:31:18;14.60;;;9.55;;
50733;SDS011;36701;51.798;19.474;2022-10-22T03:33:45;16.73;;;9.02;;
50733;SDS011;36701;51.798;19.474;2022-10-22T03:36:11;17.08;;;10.57;;
50733;SDS011;36701;51.798;19.474;2022-10-22T03:38:38;17.45;;;9.02;;
50733;SDS011;36701;51.798;19.474;2022-10-22T03:41:06;13.73;;;9.02;;
50733;SDS011;36701;51.798;19.474;2022-10-22T03:43:33;20.50;;;10.07;;
50733;SDS011;36701;51.798;19.474;2022-10-22T03:46:02;15.55;;;9.45;;
50733;SDS011;36701;51.798;19.474;2022-10-22T03:48:29;19.37;;;9.88;;
50733;SDS011;36701;51.798;19.474;2022-10-22T03:50:55;23.60;;;10.77;;
50733;SDS011;36701;51.798;19.474;2022-10-22T03:53:22;24.30;;;9.75;;
50733;SDS011;36701;51.798;19.474;2022-10-22T03:55:55;23.58;;;9.27;;
50733;SDS011;36701;51.798;19.474;2022-10-22T03:58:21;20.45;;;9.85;;
50733;SDS011;36701;51.798;19.474;2022-10-22T04:00:47;14.27;;;9.18;;
50733;SDS011;36701;51.798;19.474;2022-10-22T04:03:14;19.95;;;9.73;;
50733;SDS011;36701;51.798;19.474;2022-10-22T04:05:40;16.02;;;10.05;;
50733;SDS011;36701;51.798;19.474;2022-10-22T04:08:06;18.70;;;10.35;;
50733;SDS011;36701;51.798;19.474;2022-10-22T04:10:33;27.45;;;10.50;;
50733;SDS011;36701;51.798;19.474;2022-10-22T04:12:59;16.40;;;9.65;;
50733;SDS011;36701;51.798;19.474;2022-10-22T04:15:25;16.02;;;9.32;;
50733;SDS011;36701;51.798;19.474;2022-10-22T04:17:54;19.77;;;9.95;;
50733;SDS011;36701;51.798;19.474;2022-10-22T04:20:21;21.17;;;10.25;;
50733;SDS011;36701;51.798;19.474;2022-10-22T04:22:47;15.93;;;8.73;;
50733;SDS011;36701;51.798;19.474;2022-10-22T04:25:13;15.48;;;9.02;;
50733;SDS011;36701;51.798;19.474;2022-10-22T04:27:40;21.35;;;9.27;;
50733;SDS011;36701;51.798;19.474;2022-10-22T04:30:06;18.90;;;9.82;;
50733;SDS011;36701;51.798;19.474;2022-10-22T04:32:33;19.00;;;9.02;;
50733;SDS011;36701;51.798;19.474;2022-10-22T04:35:00;18.10;;;9.63;;
50733;SDS011;36701;51.798;19.474;2022-10-22T04:37:26;13.45;;;8.57;;
50733;SDS011;36701;51.798;19.474;2022-10-22T04:39:53;16.17;;;8.88;;
50733;SDS011;36701;51.798;19.474;2022-10-22T04:42:19;13.73;;;8.48;;
50733;SDS011;36701;51.798;19.474;2022-10-22T04:44:45;19.85;;;9.30;;
50733;SDS011;36701;51.798;19.474;2022-10-22T04:47:12;17.12;;;9.20;;
50733;SDS011;36701;51.798;19.474;2022-10-22T04:49:38;14.07;;;8.13;;
50733;SDS011;36701;51.798;19.474;2022-10-22T04:52:05;24.02;;;8.35;;
50733;SDS011;36701;51.798;19.474;2022-10-22T04:54:31;17.77;;;10.05;;
50733;SDS011;36701;51.798;19.474;2022-10-22T04:56:58;13.60;;;7.82;;
50733;SDS011;36701;51.798;19.474;2022-10-22T04:59:24;25.02;;;9.05;;
50733;SDS011;36701;51.798;19.474;2022-10-22T05:01:51;18.25;;;9.02;;
50733;SDS011;36701;51.798;19.474;2022-10-22T05:04:17;12.25;;;7.82;;
50733;SDS011;36701;51.798;19.474;2022-10-22T05:06:44;12.95;;;8.93;;
50733;SDS011;36701;51.798;19.474;2022-10-22T05:09:16;16.42;;;8.40;;
50733;SDS011;36701;51.798;19.474;2022-10-22T05:11:44;16.12;;;7.80;;
50733;SDS011;36701;51.798;19.474;2022-10-22T05:14:17;14.68;;;8.32;;
50733;SDS011;36701;51.798;19.474;2022-10-22T05:16:45;15.68;;;9.00;;
50733;SDS011;36701;51.798;19.474;2022-10-22T05:21:53;22.27;;;8.95;;
50733;SDS011;36701;51.798;19.474;2022-10-22T05:24:21;11.85;;;7.68;;
50733;SDS011;36701;51.798;19.474;2022-10-22T05:26:48;20.33;;;8.32;;
50733;SDS011;36701;51.798;19.474;2022-10-22T05:29:16;13.57;;;8.43;;
50733;SDS011;36701;51.798;19.474;2022-10-22T05:31:42;15.45;;;8.20;;
50733;SDS011;36701;51.798;19.474;2022-10-22T05:34:09;13.80;;;7.32;;
50733;SDS011;36701;51.798;19.474;2022-10-22T05:36:35;16.15;;;8.32;;
50733;SDS011;36701;51.798;19.474;2022-10-22T05:39:02;14.32;;;8.32;;
50733;SDS011;36701;51.798;19.474;2022-10-22T05:41:28;17.33;;;7.70;;
50733;SDS011;36701;51.798;19.474;2022-10-22T05:43:56;18.58;;;9.23;;
50733;SDS011;36701;51.798;19.474;2022-10-22T05:46:25;20.08;;;8.80;;
50733;SDS011;36701;51.798;19.474;2022-10-22T05:48:54;15.30;;;8.20;;
50733;SDS011;36701;51.798;19.474;2022-10-22T05:51:22;18.73;;;8.93;;
50733;SDS011;36701;51.798;19.474;2022-10-22T05:53:50;16.33;;;8.73;;
50733;SDS011;36701;51.798;19.474;2022-10-22T05:56:18;15.40;;;7.47;;
50733;SDS011;36701;51.798;19.474;2022-10-22T05:58:45;12.63;;;7.62;;
50733;SDS011;36701;51.798;19.474;2022-10-22T06:01:12;15.73;;;8.98;;
50733;SDS011;36701;51.798;19.474;2022-10-22T06:03:41;17.02;;;8.20;;
50733;SDS011;36701;51.798;19.474;2022-10-22T06:08:52;13.60;;;7.65;;
50733;SDS011;36701;51.798;19.474;2022-10-22T06:11:21;17.90;;;8.38;;
50733;SDS011;36701;51.798;19.474;2022-10-22T06:13:48;11.82;;;7.93;;
50733;SDS011;36701;51.798;19.474;2022-10-22T06:16:16;21.02;;;8.40;;
50733;SDS011;36701;51.798;19.474;2022-10-22T06:18:42;20.12;;;8.25;;
50733;SDS011;36701;51.798;19.474;2022-10-22T06:21:10;12.70;;;8.65;;
50733;SDS011;36701;51.798;19.474;2022-10-22T06:23:38;15.90;;;7.68;;
50733;SDS011;36701;51.798;19.474;2022-10-22T06:26:06;15.63;;;7.45;;
50733;SDS011;36701;51.798;19.474;2022-10-22T06:28:33;11.98;;;8.00;;
50733;SDS011;36701;51.798;19.474;2022-10-22T06:31:01;11.88;;;7.57;;
50733;SDS011;36701;51.798;19.474;2022-10-22T06:33:29;12.35;;;7.35;;
50733;SDS011;36701;51.798;19.474;2022-10-22T06:36:10;10.60;;;7.55;;
50733;SDS011;36701;51.798;19.474;2022-10-22T06:38:39;12.23;;;8.23;;
50733;SDS011;36701;51.798;19.474;2022-10-22T06:41:07;14.52;;;7.32;;
50733;SDS011;36701;51.798;19.474;2022-10-22T06:43:36;19.92;;;7.55;;
50733;SDS011;36701;51.798;19.474;2022-10-22T06:46:05;17.62;;;8.52;;
50733;SDS011;36701;51.798;19.474;2022-10-22T06:48:35;12.73;;;6.62;;
50733;SDS011;36701;51.798;19.474;2022-10-22T06:51:03;13.43;;;8.98;;
50733;SDS011;36701;51.798;19.474;2022-10-22T06:53:32;15.13;;;8.15;;
50733;SDS011;36701;51.798;19.474;2022-10-22T06:56:05;14.02;;;7.85;;
50733;SDS011;36701;51.798;19.474;2022-10-22T06:58:33;25.58;;;8.10;;
50733;SDS011;36701;51.798;19.474;2022-10-22T07:01:00;16.70;;;9.25;;
50733;SDS011;36701;51.798;19.474;2022-10-22T07:03:34;15.60;;;8.27;;
50733;SDS011;36701;51.798;19.474;2022-10-22T07:06:01;14.57;;;8.20;;
50733;SDS011;36701;51.798;19.474;2022-10-22T07:08:29;12.15;;;7.62;;
50733;SDS011;36701;51.798;19.474;2022-10-22T07:11:04;15.90;;;8.90;;
50733;SDS011;36701;51.798;19.474;2022-10-22T07:13:41;18.62;;;9.32;;
50733;SDS011;36701;51.798;19.474;2022-10-22T07:16:09;13.43;;;7.68;;
50733;SDS011;36701;51.798;19.474;2022-10-22T07:18:37;15.43;;;7.60;;
50733;SDS011;36701;51.798;19.474;2022-10-22T07:21:04;15.45;;;8.63;;
50733;SDS011;36701;51.798;19.474;2022-10-22T07:23:32;14.93;;;9.40;;
50733;SDS011;36701;51.798;19.474;2022-10-22T07:25:59;18.52;;;9.45;;
50733;SDS011;36701;51.798;19.474;2022-10-22T07:28:27;10.85;;;8.30;;
50733;SDS011;36701;51.798;19.474;2022-10-22T07:30:54;14.02;;;8.02;;
50733;SDS011;36701;51.798;19.474;2022-10-22T07:33:21;15.95;;;8.13;;
50733;SDS011;36701;51.798;19.474;2022-10-22T07:35:48;17.52;;;8.05;;
50733;SDS011;36701;51.798;19.474;2022-10-22T07:38:14;13.02;;;8.82;;
50733;SDS011;36701;51.798;19.474;2022-10-22T07:40:41;17.60;;;8.32;;
50733;SDS011;36701;51.798;19.474;2022-10-22T07:43:07;15.43;;;8.40;;
50733;SDS011;36701;51.798;19.474;2022-10-22T07:45:34;15.50;;;9.18;;
50733;SDS011;36701;51.798;19.474;2022-10-22T07:48:00;19.90;;;8.55;;
50733;SDS011;36701;51.798;19.474;2022-10-22T07:50:27;19.98;;;9.80;;
50733;SDS011;36701;51.798;19.474;2022-10-22T07:52:53;18.85;;;8.55;;
50733;SDS011;36701;51.798;19.474;2022-10-22T07:55:20;16.77;;;8.23;;
50733;SDS011;36701;51.798;19.474;2022-10-22T07:57:46;13.02;;;8.65;;
50733;SDS011;36701;51.798;19.474;2022-10-22T08:00:13;19.23;;;9.27;;
50733;SDS011;36701;51.798;19.474;2022-10-22T08:02:40;16.75;;;10.00;;
50733;SDS011;36701;51.798;19.474;2022-10-22T08:05:06;18.00;;;9.60;;
50733;SDS011;36701;51.798;19.474;2022-10-22T08:07:33;19.15;;;10.52;;
50733;SDS011;36701;51.798;19.474;2022-10-22T08:09:59;16.87;;;8.13;;
50733;SDS011;36701;51.798;19.474;2022-10-22T08:12:26;19.92;;;10.20;;
50733;SDS011;36701;51.798;19.474;2022-10-22T08:14:52;19.92;;;9.45;;
50733;SDS011;36701;51.798;19.474;2022-10-22T08:17:19;17.23;;;9.90;;
50733;SDS011;36701;51.798;19.474;2022-10-22T08:19:45;20.48;;;10.02;;
50733;SDS011;36701;51.798;19.474;2022-10-22T08:22:12;18.73;;;10.10;;
50733;SDS011;36701;51.798;19.474;2022-10-22T08:24:38;22.35;;;11.10;;
50733;SDS011;36701;51.798;19.474;2022-10-22T08:27:05;20.15;;;10.90;;
50733;SDS011;36701;51.798;19.474;2022-10-22T08:29:31;21.25;;;10.70;;
50733;SDS011;36701;51.798;19.474;2022-10-22T08:31:58;27.95;;;11.55;;
50733;SDS011;36701;51.798;19.474;2022-10-22T08:34:28;20.75;;;11.43;;
50733;SDS011;36701;51.798;19.474;2022-10-22T08:36:55;26.45;;;12.68;;
50733;SDS011;36701;51.798;19.474;2022-10-22T08:39:21;19.58;;;13.13;;
50733;SDS011;36701;51.798;19.474;2022-10-22T08:48:08;22.30;;;12.37;;
50733;SDS011;36701;51.798;19.474;2022-10-22T08:50:45;17.02;;;11.12;;
50733;SDS011;36701;51.798;19.474;2022-10-22T08:53:20;20.75;;;11.68;;
50733;SDS011;36701;51.798;19.474;2022-10-22T08:55:51;25.40;;;12.25;;
50733;SDS011;36701;51.798;19.474;2022-10-22T08:58:21;22.45;;;12.15;;
50733;SDS011;36701;51.798;19.474;2022-10-22T09:06:20;26.33;;;12.13;;
50733;SDS011;36701;51.798;19.474;2022-10-22T09:08:50;22.02;;;12.93;;
50733;SDS011;36701;51.798;19.474;2022-10-22T09:14:00;28.60;;;12.35;;
50733;SDS011;36701;51.798;19.474;2022-10-22T09:19:43;22.35;;;12.15;;
50733;SDS011;36701;51.798;19.474;2022-10-22T09:24:52;18.73;;;11.32;;
50733;SDS011;36701;51.798;19.474;2022-10-22T09:27:28;22.00;;;12.88;;
50733;SDS011;36701;51.798;19.474;2022-10-22T09:29:56;23.52;;;12.02;;
50733;SDS011;36701;51.798;19.474;2022-10-22T09:32:22;32.17;;;12.90;;
50733;SDS011;36701;51.798;19.474;2022-10-22T09:34:53;30.83;;;12.10;;
50733;SDS011;36701;51.798;19.474;2022-10-22T09:37:24;28.40;;;13.60;;
50733;SDS011;36701;51.798;19.474;2022-10-22T09:39:53;27.52;;;12.52;;
50733;SDS011;36701;51.798;19.474;2022-10-22T09:42:20;28.15;;;12.05;;
50733;SDS011;36701;51.798;19.474;2022-10-22T09:44:55;26.58;;;13.02;;
50733;SDS011;36701;51.798;19.474;2022-10-22T09:52:45;24.58;;;13.25;;
50733;SDS011;36701;51.798;19.474;2022-10-22T09:55:29;32.03;;;12.40;;
50733;SDS011;36701;51.798;19.474;2022-10-22T09:57:57;21.98;;;11.98;;
50733;SDS011;36701;51.798;19.474;2022-10-22T10:00:32;30.37;;;12.37;;
50733;SDS011;36701;51.798;19.474;2022-10-22T10:02:58;27.77;;;13.00;;
50733;SDS011;36701;51.798;19.474;2022-10-22T10:05:27;28.67;;;13.40;;
50733;SDS011;36701;51.798;19.474;2022-10-22T10:08:07;26.00;;;12.30;;
50733;SDS011;36701;51.798;19.474;2022-10-22T10:10:46;27.73;;;13.30;;
50733;SDS011;36701;51.798;19.474;2022-10-22T10:15:59;26.50;;;12.75;;
50733;SDS011;36701;51.798;19.474;2022-10-22T10:23:57;27.52;;;14.20;;
50733;SDS011;36701;51.798;19.474;2022-10-22T10:26:36;34.15;;;16.50;;
50733;SDS011;36701;51.798;19.474;2022-10-22T10:41:43;30.17;;;15.48;;
50733;SDS011;36701;51.798;19.474;2022-10-22T10:43:49;27.15;;;14.93;;
50733;SDS011;36701;51.798;19.474;2022-10-22T10:49:03;28.08;;;14.80;;
50733;SDS011;36701;51.798;19.474;2022-10-22T10:51:46;39.85;;;15.80;;
50733;SDS011;36701;51.798;19.474;2022-10-22T10:57:18;37.10;;;15.85;;
50733;SDS011;36701;51.798;19.474;2022-10-22T11:00:08;38.58;;;16.92;;
50733;SDS011;36701;51.798;19.474;2022-10-22T11:05:43;30.90;;;14.87;;
50733;SDS011;36701;51.798;19.474;2022-10-22T11:08:19;31.90;;;17.35;;
50733;SDS011;36701;51.798;19.474;2022-10-22T11:18:57;43.67;;;18.02;;
50733;SDS011;36701;51.798;19.474;2022-10-22T11:21:37;52.85;;;18.75;;
50733;SDS011;36701;51.798;19.474;2022-10-22T11:24:41;33.90;;;16.55;;
50733;SDS011;36701;51.798;19.474;2022-10-22T11:30:12;33.13;;;18.17;;
50733;SDS011;36701;51.798;19.474;2022-10-22T11:32:41;43.28;;;17.30;;
50733;SDS011;36701;51.798;19.474;2022-10-22T11:35:16;38.85;;;16.90;;
50733;SDS011;36701;51.798;19.474;2022-10-22T11:37:46;32.38;;;16.62;;
50733;SDS011;36701;51.798;19.474;2022-10-22T11:40:15;31.55;;;15.82;;
50733;SDS011;36701;51.798;19.474;2022-10-22T11:42:47;33.92;;;14.82;;
50733;SDS011;36701;51.798;19.474;2022-10-22T11:47:52;29.85;;;15.55;;
50733;SDS011;36701;51.798;19.474;2022-10-22T11:50:23;26.62;;;13.80;;
50733;SDS011;36701;51.798;19.474;2022-10-22T11:53:01;29.15;;;15.23;;
50733;SDS011;36701;51.798;19.474;2022-10-22T11:55:32;32.88;;;14.52;;
50733;SDS011;36701;51.798;19.474;2022-10-22T11:57:59;40.53;;;16.60;;
50733;SDS011;36701;51.798;19.474;2022-10-22T12:03:18;59.47;;;26.73;;
50733;SDS011;36701;51.798;19.474;2022-10-22T12:06:05;28.75;;;15.75;;
50733;SDS011;36701;51.798;19.474;2022-10-22T12:11:16;35.45;;;16.87;;
50733;SDS011;36701;51.798;19.474;2022-10-22T12:14:17;39.78;;;20.25;;
50733;SDS011;36701;51.798;19.474;2022-10-22T12:16:51;25.05;;;14.20;;
50733;SDS011;36701;51.798;19.474;2022-10-22T12:21:51;32.13;;;15.55;;
50733;SDS011;36701;51.798;19.474;2022-10-22T12:24:28;35.55;;;17.12;;
50733;SDS011;36701;51.798;19.474;2022-10-22T12:26:58;39.75;;;16.08;;
50733;SDS011;36701;51.798;19.474;2022-10-22T12:29:24;26.60;;;15.15;;
50733;SDS011;36701;51.798;19.474;2022-10-22T12:31:53;34.22;;;16.00;;
50733;SDS011;36701;51.798;19.474;2022-10-22T12:34:22;32.08;;;17.17;;
50733;SDS011;36701;51.798;19.474;2022-10-22T12:36:51;28.00;;;15.45;;
50733;SDS011;36701;51.798;19.474;2022-10-22T12:39:19;30.35;;;17.40;;
50733;SDS011;36701;51.798;19.474;2022-10-22T12:41:51;46.22;;;18.02;;
50733;SDS011;36701;51.798;19.474;2022-10-22T12:44:18;30.17;;;14.93;;
50733;SDS011;36701;51.798;19.474;2022-10-22T12:46:48;27.83;;;15.27;;
50733;SDS011;36701;51.798;19.474;2022-10-22T12:49:22;30.42;;;16.10;;
50733;SDS011;36701;51.798;19.474;2022-10-22T12:52:05;29.87;;;17.17;;
50733;SDS011;36701;51.798;19.474;2022-10-22T12:54:36;30.42;;;14.52;;
50733;SDS011;36701;51.798;19.474;2022-10-22T12:57:05;29.92;;;16.55;;
50733;SDS011;36701;51.798;19.474;2022-10-22T12:59:36;25.27;;;13.68;;
50733;SDS011;36701;51.798;19.474;2022-10-22T13:05:11;33.33;;;16.77;;
50733;SDS011;36701;51.798;19.474;2022-10-22T13:07:43;29.92;;;16.08;;
50733;SDS011;36701;51.798;19.474;2022-10-22T13:10:16;39.08;;;17.10;;
50733;SDS011;36701;51.798;19.474;2022-10-22T13:12:49;33.97;;;19.20;;
50733;SDS011;36701;51.798;19.474;2022-10-22T13:15:17;31.67;;;17.23;;
50733;SDS011;36701;51.798;19.474;2022-10-22T13:18:03;24.80;;;14.80;;
50733;SDS011;36701;51.798;19.474;2022-10-22T13:20:48;31.50;;;17.02;;
50733;SDS011;36701;51.798;19.474;2022-10-22T13:23:21;33.03;;;17.02;;
50733;SDS011;36701;51.798;19.474;2022-10-22T13:26:22;26.48;;;16.17;;
50733;SDS011;36701;51.798;19.474;2022-10-22T13:28:48;33.20;;;18.33;;
50733;SDS011;36701;51.798;19.474;2022-10-22T13:31:27;33.00;;;16.95;;
50733;SDS011;36701;51.798;19.474;2022-10-22T13:34:02;35.35;;;16.27;;
50733;SDS011;36701;51.798;19.474;2022-10-22T13:36:31;28.60;;;15.43;;
50733;SDS011;36701;51.798;19.474;2022-10-22T13:39:05;34.95;;;18.08;;
50733;SDS011;36701;51.798;19.474;2022-10-22T13:41:40;29.60;;;17.58;;
50733;SDS011;36701;51.798;19.474;2022-10-22T13:44:07;27.62;;;15.80;;
50733;SDS011;36701;51.798;19.474;2022-10-22T13:46:33;27.37;;;15.88;;
50733;SDS011;36701;51.798;19.474;2022-10-22T13:51:32;30.83;;;15.55;;
50733;SDS011;36701;51.798;19.474;2022-10-22T13:54:00;36.92;;;17.42;;
50733;SDS011;36701;51.798;19.474;2022-10-22T13:56:28;31.30;;;17.98;;
50733;SDS011;36701;51.798;19.474;2022-10-22T13:58:55;26.98;;;17.25;;
50733;SDS011;36701;51.798;19.474;2022-10-22T14:01:25;36.20;;;17.45;;
50733;SDS011;36701;51.798;19.474;2022-10-22T14:03:56;34.65;;;16.67;;
50733;SDS011;36701;51.798;19.474;2022-10-22T14:06:25;28.70;;;16.75;;
50733;SDS011;36701;51.798;19.474;2022-10-22T14:08:58;36.70;;;18.75;;
50733;SDS011;36701;51.798;19.474;2022-10-22T14:11:27;32.65;;;15.20;;
50733;SDS011;36701;51.798;19.474;2022-10-22T14:13:55;35.83;;;17.67;;
50733;SDS011;36701;51.798;19.474;2022-10-22T14:16:23;32.35;;;18.70;;
50733;SDS011;36701;51.798;19.474;2022-10-22T14:18:52;33.30;;;17.70;;
50733;SDS011;36701;51.798;19.474;2022-10-22T14:21:20;40.28;;;18.20;;
50733;SDS011;36701;51.798;19.474;2022-10-22T14:23:47;46.40;;;20.55;;
50733;SDS011;36701;51.798;19.474;2022-10-22T14:26:26;40.38;;;18.65;;
50733;SDS011;36701;51.798;19.474;2022-10-22T14:28:56;38.38;;;19.58;;
50733;SDS011;36701;51.798;19.474;2022-10-22T14:31:23;28.40;;;16.70;;
50733;SDS011;36701;51.798;19.474;2022-10-22T14:33:50;32.20;;;18.02;;
50733;SDS011;36701;51.798;19.474;2022-10-22T14:36:17;32.15;;;18.15;;
50733;SDS011;36701;51.798;19.474;2022-10-22T14:38:45;35.60;;;17.33;;
50733;SDS011;36701;51.798;19.474;2022-10-22T14:41:17;33.05;;;17.58;;
50733;SDS011;36701;51.798;19.474;2022-10-22T14:43:46;30.35;;;16.70;;
50733;SDS011;36701;51.798;19.474;2022-10-22T14:46:13;40.55;;;18.67;;
50733;SDS011;36701;51.798;19.474;2022-10-22T14:48:41;35.55;;;17.90;;
50733;SDS011;36701;51.798;19.474;2022-10-22T14:51:11;31.95;;;18.45;;
50733;SDS011;36701;51.798;19.474;2022-10-22T14:53:39;36.60;;;18.15;;
50733;SDS011;36701;51.798;19.474;2022-10-22T14:56:08;31.95;;;17.70;;
50733;SDS011;36701;51.798;19.474;2022-10-22T14:58:37;30.80;;;18.00;;
50733;SDS011;36701;51.798;19.474;2022-10-22T15:01:04;29.17;;;16.77;;
50733;SDS011;36701;51.798;19.474;2022-10-22T15:03:31;36.78;;;19.77;;
50733;SDS011;36701;51.798;19.474;2022-10-22T15:05:58;33.63;;;17.95;;
50733;SDS011;36701;51.798;19.474;2022-10-22T15:08:25;31.83;;;17.27;;
50733;SDS011;36701;51.798;19.474;2022-10-22T15:13:32;32.00;;;18.20;;
50733;SDS011;36701;51.798;19.474;2022-10-22T15:15:59;35.40;;;18.20;;
50733;SDS011;36701;51.798;19.474;2022-10-22T15:18:26;40.10;;;20.05;;
50733;SDS011;36701;51.798;19.474;2022-10-22T15:20:56;43.90;;;19.48;;
50733;SDS011;36701;51.798;19.474;2022-10-22T15:23:31;34.33;;;19.80;;
50733;SDS011;36701;51.798;19.474;2022-10-22T15:25:58;39.35;;;19.40;;
50733;SDS011;36701;51.798;19.474;2022-10-22T15:28:24;36.33;;;18.67;;
50733;SDS011;36701;51.798;19.474;2022-10-22T15:30:52;37.67;;;19.08;;
50733;SDS011;36701;51.798;19.474;2022-10-22T15:33:24;36.83;;;18.87;;
50733;SDS011;36701;51.798;19.474;2022-10-22T15:35:52;33.33;;;19.65;;
50733;SDS011;36701;51.798;19.474;2022-10-22T15:38:20;33.25;;;19.20;;
50733;SDS011;36701;51.798;19.474;2022-10-22T15:40:47;34.88;;;18.25;;
50733;SDS011;36701;51.798;19.474;2022-10-22T15:43:13;50.90;;;21.40;;
50733;SDS011;36701;51.798;19.474;2022-10-22T15:45:39;31.33;;;19.37;;
50733;SDS011;36701;51.798;19.474;2022-10-22T15:48:06;32.38;;;18.83;;
50733;SDS011;36701;51.798;19.474;2022-10-22T15:50:36;38.20;;;18.67;;
50733;SDS011;36701;51.798;19.474;2022-10-22T15:53:03;29.85;;;16.70;;
50733;SDS011;36701;51.798;19.474;2022-10-22T15:55:30;42.95;;;20.90;;
50733;SDS011;36701;51.798;19.474;2022-10-22T15:57:56;35.45;;;19.77;;
50733;SDS011;36701;51.798;19.474;2022-10-22T16:00:23;40.65;;;21.52;;
50733;SDS011;36701;51.798;19.474;2022-10-22T16:02:52;36.20;;;19.67;;
50733;SDS011;36701;51.798;19.474;2022-10-22T16:05:18;41.42;;;21.35;;
50733;SDS011;36701;51.798;19.474;2022-10-22T16:07:45;48.78;;;20.17;;
50733;SDS011;36701;51.798;19.474;2022-10-22T16:10:11;39.35;;;21.67;;
50733;SDS011;36701;51.798;19.474;2022-10-22T16:12:39;35.75;;;20.02;;
50733;SDS011;36701;51.798;19.474;2022-10-22T16:15:06;46.03;;;23.60;;
50733;SDS011;36701;51.798;19.474;2022-10-22T16:17:34;45.53;;;25.15;;
50733;SDS011;36701;51.798;19.474;2022-10-22T16:20:00;39.25;;;22.70;;
50733;SDS011;36701;51.798;19.474;2022-10-22T16:22:27;36.47;;;21.55;;
50733;SDS011;36701;51.798;19.474;2022-10-22T16:24:54;45.30;;;22.17;;
50733;SDS011;36701;51.798;19.474;2022-10-22T16:27:21;42.50;;;23.48;;
50733;SDS011;36701;51.798;19.474;2022-10-22T16:29:47;39.90;;;21.45;;
50733;SDS011;36701;51.798;19.474;2022-10-22T16:32:14;38.90;;;21.50;;
50733;SDS011;36701;51.798;19.474;2022-10-22T16:34:41;40.63;;;20.37;;